Time;durP1;ratioP1;P1;durP2;ratioP2;P2;SDS_P1;SDS_P2;PMS_P1;PMS_P2;Temp;Humidity;BMP_temperature;BMP_pressure;BME280_temperature;BME280_humidity;BME280_pressure;Samples;Min_cycle;Max_cycle;Signal;HPM_P1;HPM_P2
2024/01/14 00:01:29;;;;;;;20.97;14.23;;;1.10;42.00;;;;;;10369895;28;20234;-80
2024/01/14 00:06:32;;;;;;;18.80;13.83;;;1.10;42.00;;;;;;10370238;28;20252;-82
2024/01/14 00:11:38;;;;;;;21.13;14.73;;;1.10;41.90;;;;;;10370341;28;20261;-82
2024/01/14 00:16:41;;;;;;;19.90;14.17;;;1.10;41.90;;;;;;10363305;28;20249;-81
2024/01/14 00:21:44;;;;;;;17.37;13.20;;;1.20;41.90;;;;;;10369058;28;20234;-80
2024/01/14 00:26:49;;;;;;;17.27;12.87;;;1.10;41.90;;;;;;10367587;28;22132;-83
2024/01/14 00:31:52;;;;;;;17.77;12.77;;;1.10;42.00;;;;;;10362665;28;20237;-83
2024/01/14 00:36:55;;;;;;;17.60;12.97;;;1.20;42.00;;;;;;10376128;28;20855;-82
2024/01/14 00:42:00;;;;;;;15.63;12.37;;;1.00;41.90;;;;;;10373222;28;20253;-82
2024/01/14 00:47:03;;;;;;;15.57;11.53;;;1.10;42.00;;;;;;10380998;28;20229;-80
2024/01/14 00:52:06;;;;;;;14.47;10.50;;;1.10;41.90;;;;;;10379340;28;20222;-81
2024/01/14 00:57:11;;;;;;;12.83;9.83;;;1.20;41.90;;;;;;10377051;28;20214;-82
2024/01/14 01:02:14;;;;;;;12.63;9.63;;;1.20;41.80;;;;;;10380730;28;20218;-82
2024/01/14 01:07:17;;;;;;;13.70;10.27;;;1.20;41.70;;;;;;10375909;28;20232;-81
2024/01/14 01:12:22;;;;;;;13.80;10.87;;;1.20;41.60;;;;;;10380680;28;20251;-82
2024/01/14 01:17:25;;;;;;;14.90;10.93;;;1.30;41.60;;;;;;10380479;28;20253;-82
2024/01/14 01:22:29;;;;;;;15.90;11.57;;;1.40;41.60;;;;;;10377388;28;20230;-82
2024/01/14 01:27:33;;;;;;;14.97;11.50;;;1.30;41.40;;;;;;10377175;28;20621;-82
2024/01/14 01:32:36;;;;;;;13.73;11.47;;;1.20;41.40;;;;;;10379900;28;20290;-82
2024/01/14 01:37:40;;;;;;;15.23;12.10;;;1.20;41.50;;;;;;10378166;28;20237;-82
2024/01/14 01:42:45;;;;;;;17.13;12.77;;;1.20;41.40;;;;;;10377642;28;20786;-82
2024/01/14 01:47:48;;;;;;;16.00;12.83;;;1.20;41.40;;;;;;10367567;28;20251;-83
2024/01/14 01:52:52;;;;;;;16.83;12.50;;;1.20;41.60;;;;;;10375289;28;20253;-82
2024/01/14 01:57:56;;;;;;;16.73;13.07;;;1.10;41.50;;;;;;10371023;28;20249;-82
2024/01/14 02:03:00;;;;;;;16.77;12.60;;;1.10;41.50;;;;;;10372593;28;20268;-81
2024/01/14 02:08:03;;;;;;;20.27;14.13;;;1.00;41.50;;;;;;10375403;28;20634;-82
2024/01/14 02:13:08;;;;;;;17.43;13.47;;;1.00;41.50;;;;;;10368677;28;20691;-81
2024/01/14 02:18:11;;;;;;;17.97;13.17;;;1.00;41.60;;;;;;10371050;28;20246;-81
2024/01/14 02:23:20;;;;;;;19.20;13.67;;;1.00;41.50;;;;;;10380462;28;20309;-81
2024/01/14 02:28:25;;;;;;;19.67;13.87;;;1.00;41.60;;;;;;10379037;28;20234;-81
2024/01/14 02:33:29;;;;;;;20.60;15.40;;;1.00;41.60;;;;;;10376477;28;20280;-80
2024/01/14 02:38:32;;;;;;;19.20;14.30;;;0.90;41.60;;;;;;10380019;28;20246;-81
2024/01/14 02:43:37;;;;;;;20.10;14.50;;;0.80;41.60;;;;;;10377724;28;20652;-81
2024/01/14 02:48:40;;;;;;;21.67;15.10;;;0.80;41.60;;;;;;10371590;28;20253;-81
2024/01/14 02:53:43;;;;;;;19.77;14.00;;;0.80;41.50;;;;;;10378604;28;21050;-81
2024/01/14 02:58:48;;;;;;;19.47;14.37;;;0.80;41.60;;;;;;10373105;28;20257;-79
2024/01/14 03:03:53;;;;;;;19.23;14.40;;;0.80;41.60;;;;;;10373126;28;20316;-81
2024/01/14 03:08:56;;;;;;;22.37;15.67;;;0.90;41.50;;;;;;10371994;28;20234;-82
2024/01/14 03:14:01;;;;;;;23.27;16.23;;;0.90;41.50;;;;;;10370407;28;20235;-81
2024/01/14 03:19:04;;;;;;;21.43;15.77;;;1.00;41.50;;;;;;10365234;28;20321;-82
2024/01/14 03:24:07;;;;;;;21.13;15.60;;;1.00;41.30;;;;;;10367158;28;20257;-80
2024/01/14 03:29:12;;;;;;;19.93;14.73;;;1.20;41.50;;;;;;10355209;28;20813;-81
2024/01/14 03:34:15;;;;;;;21.03;15.23;;;1.10;41.30;;;;;;10376552;28;20640;-81
2024/01/14 03:39:19;;;;;;;25.50;17.00;;;1.10;41.20;;;;;;10374690;28;20237;-80
2024/01/14 03:44:24;;;;;;;23.93;16.60;;;1.10;41.10;;;;;;10371426;28;20236;-81
2024/01/14 03:49:27;;;;;;;25.47;17.77;;;1.10;41.30;;;;;;10376379;28;20941;-81
2024/01/14 03:54:30;;;;;;;24.80;17.00;;;1.10;41.10;;;;;;10361154;28;20239;-82
2024/01/14 03:59:35;;;;;;;21.63;16.03;;;1.10;41.00;;;;;;10360935;28;20809;-81
2024/01/14 04:04:38;;;;;;;21.20;15.30;;;1.20;41.10;;;;;;10374867;28;20238;-81
2024/01/14 04:09:41;;;;;;;22.87;16.03;;;1.20;41.10;;;;;;10373441;28;20288;-81
2024/01/14 04:14:46;;;;;;;24.70;16.23;;;1.20;41.10;;;;;;10370142;28;20230;-80
2024/01/14 04:19:49;;;;;;;24.10;16.93;;;1.30;41.10;;;;;;10373385;28;20241;-82
2024/01/14 04:24:53;;;;;;;24.07;16.97;;;1.30;41.10;;;;;;10375176;28;20230;-81
2024/01/14 04:29:57;;;;;;;21.07;16.07;;;1.30;41.00;;;;;;10373006;28;20256;-81
2024/01/14 04:35:01;;;;;;;22.33;15.33;;;1.30;41.00;;;;;;10372112;28;20226;-81
2024/01/14 04:40:05;;;;;;;23.33;16.13;;;1.30;40.90;;;;;;10370590;28;20648;-81
2024/01/14 04:45:10;;;;;;;19.43;14.97;;;1.30;40.90;;;;;;10371043;28;20259;-81
2024/01/14 04:50:14;;;;;;;20.03;14.03;;;1.30;40.90;;;;;;10346182;28;20239;-81
2024/01/14 04:55:18;;;;;;;16.93;12.40;;;1.30;40.90;;;;;;10357708;28;20280;-82
2024/01/14 05:00:23;;;;;;;13.80;10.63;;;1.30;40.90;;;;;;10370760;28;20244;-80
2024/01/14 05:05:26;;;;;;;12.57;9.63;;;1.30;40.60;;;;;;10369926;28;20229;-81
2024/01/14 05:10:29;;;;;;;12.70;9.50;;;1.30;40.50;;;;;;10375869;28;20250;-82
2024/01/14 05:15:34;;;;;;;11.77;8.70;;;1.30;40.60;;;;;;10375350;28;20261;-81
2024/01/14 05:20:37;;;;;;;11.87;8.90;;;1.30;40.60;;;;;;10369747;28;20294;-82
2024/01/14 05:25:41;;;;;;;13.43;9.00;;;1.40;40.90;;;;;;10378003;28;20475;-81
2024/01/14 05:30:47;;;;;;;12.40;8.63;;;1.30;40.60;;;;;;10379961;28;20250;-81
2024/01/14 05:35:51;;;;;;;12.20;8.80;;;1.20;40.70;;;;;;10380696;28;20252;-82
2024/01/14 05:40:54;;;;;;;12.53;9.03;;;1.30;40.80;;;;;;10379101;28;20242;-82
2024/01/14 05:45:58;;;;;;;13.30;8.97;;;1.20;40.60;;;;;;10376905;28;20223;-81
2024/01/14 05:51:02;;;;;;;12.80;9.47;;;1.20;40.70;;;;;;10378191;28;20325;-82
2024/01/14 05:56:06;;;;;;;13.27;9.70;;;1.20;40.90;;;;;;10373669;28;20273;-81
2024/01/14 06:01:10;;;;;;;13.60;9.53;;;1.10;40.60;;;;;;10371885;28;20234;-81
2024/01/14 06:06:14;;;;;;;16.40;11.03;;;1.00;40.70;;;;;;10378898;28;20226;-82
2024/01/14 06:11:19;;;;;;;19.60;12.90;;;1.00;40.90;;;;;;10381227;28;20317;-81
2024/01/14 06:16:24;;;;;;;15.80;11.57;;;1.00;41.00;;;;;;10378454;28;20257;-81
2024/01/14 06:21:28;;;;;;;17.17;11.97;;;1.00;41.00;;;;;;10378859;28;20230;-81
2024/01/14 06:26:31;;;;;;;19.83;13.20;;;1.10;41.10;;;;;;10374888;28;20759;-81
2024/01/14 06:31:35;;;;;;;19.27;13.17;;;0.90;40.80;;;;;;10374921;28;20301;-81
2024/01/14 06:36:39;;;;;;;17.57;11.83;;;0.90;40.90;;;;;;10377538;28;20230;-81
2024/01/14 06:41:42;;;;;;;18.37;12.37;;;0.80;40.80;;;;;;10376788;28;20226;-81
2024/01/14 06:46:48;;;;;;;17.77;12.03;;;0.70;41.00;;;;;;10369033;28;20254;-80
2024/01/14 06:51:51;;;;;;;18.30;11.73;;;0.70;41.10;;;;;;10371927;28;20230;-81
2024/01/14 06:56:54;;;;;;;17.30;11.73;;;0.60;41.10;;;;;;10373537;28;20227;-81
2024/01/14 07:01:59;;;;;;;17.63;12.97;;;0.70;41.20;;;;;;10365274;28;20294;-81
2024/01/14 07:07:02;;;;;;;17.20;12.43;;;0.60;41.30;;;;;;10374942;28;20740;-81
2024/01/14 07:12:07;;;;;;;18.50;12.07;;;0.70;41.30;;;;;;10369604;28;20227;-82
2024/01/14 07:17:11;;;;;;;20.40;13.70;;;0.60;41.10;;;;;;10367777;28;20230;-81
2024/01/14 07:22:14;;;;;;;21.93;14.33;;;0.60;41.00;;;;;;10369938;28;20244;-81
2024/01/14 07:27:18;;;;;;;19.43;13.23;;;0.60;41.10;;;;;;10368107;28;20318;-81
2024/01/14 07:32:22;;;;;;;23.13;15.70;;;0.60;41.10;;;;;;10371174;28;20234;-82
2024/01/14 07:37:25;;;;;;;40.03;21.37;;;0.60;41.10;;;;;;10362303;28;20276;-81
2024/01/14 07:42:29;;;;;;;37.03;21.70;;;0.60;41.10;;;;;;10374567;28;20839;-82
2024/01/14 07:47:33;;;;;;;51.87;27.17;;;0.60;41.10;;;;;;10371698;28;20223;-82
2024/01/14 07:52:37;;;;;;;52.17;28.33;;;0.80;41.20;;;;;;10373617;28;20293;-82
2024/01/14 07:57:40;;;;;;;65.57;34.60;;;0.80;41.10;;;;;;10373328;28;20226;-81
2024/01/14 08:02:44;;;;;;;72.90;45.93;;;0.60;41.20;;;;;;10372352;28;20626;-82
2024/01/14 08:07:48;;;;;;;33.33;22.50;;;0.70;41.20;;;;;;10369983;28;20249;-81
2024/01/14 08:12:51;;;;;;;27.80;17.97;;;0.70;41.30;;;;;;10370727;28;20598;-80
2024/01/14 08:17:56;;;;;;;31.90;22.23;;;0.70;41.20;;;;;;10359907;28;20222;-80
2024/01/14 08:23:00;;;;;;;25.63;17.43;;;0.90;41.20;;;;;;10366691;28;20273;-81
2024/01/14 08:28:03;;;;;;;24.83;16.70;;;0.90;41.80;;;;;;10344937;28;20329;-81
2024/01/14 08:33:08;;;;;;;23.47;15.60;;;0.90;41.10;;;;;;10365417;28;20297;-81
2024/01/14 08:38:12;;;;;;;21.30;15.30;;;0.80;41.20;;;;;;10363906;28;20767;-81
2024/01/14 08:43:15;;;;;;;20.23;14.90;;;1.00;41.30;;;;;;10363365;28;20775;-82
2024/01/14 08:48:20;;;;;;;21.47;13.77;;;1.20;41.50;;;;;;10353860;28;20301;-81
2024/01/14 08:53:23;;;;;;;22.80;14.63;;;1.10;41.30;;;;;;10327030;28;20552;-75
2024/01/14 08:58:27;;;;;;;22.27;14.93;;;1.10;41.20;;;;;;10339747;28;20222;-76
2024/01/14 09:03:31;;;;;;;21.00;14.37;;;1.10;41.20;;;;;;10345923;28;20227;-78
2024/01/14 09:08:35;;;;;;;20.33;14.13;;;1.10;41.50;;;;;;10344945;28;20225;-77
2024/01/14 09:13:38;;;;;;;25.23;16.83;;;1.10;41.30;;;;;;10356977;28;20302;-77
2024/01/14 09:18:42;;;;;;;22.77;15.17;;;1.10;41.60;;;;;;10352097;28;20231;-76
2024/01/14 09:23:46;;;;;;;22.93;14.67;;;1.30;41.70;;;;;;10360580;28;20234;-77
2024/01/14 09:28:50;;;;;;;20.73;13.43;;;1.30;41.70;;;;;;10354951;28;20214;-77
2024/01/14 09:33:55;;;;;;;20.70;13.97;;;1.40;41.70;;;;;;10360183;28;20233;-77
2024/01/14 09:38:59;;;;;;;20.93;14.57;;;1.50;41.50;;;;;;10363111;28;20309;-76
2024/01/14 09:44:04;;;;;;;19.93;14.00;;;1.70;41.40;;;;;;10368554;28;20269;-75
2024/01/14 09:49:11;;;;;;;19.00;14.27;;;1.80;41.20;;;;;;10369565;28;20233;-75
2024/01/14 09:54:18;;;;;;;19.10;13.50;;;1.80;41.10;;;;;;10372001;28;20799;-78
2024/01/14 09:59:22;;;;;;;23.00;15.00;;;1.90;41.20;;;;;;10368146;28;20237;-76
2024/01/14 10:04:27;;;;;;;20.90;13.73;;;2.10;41.40;;;;;;10368745;28;20249;-76
2024/01/14 10:09:30;;;;;;;19.53;14.17;;;2.20;41.20;;;;;;10368858;28;20234;-74
2024/01/14 10:14:35;;;;;;;20.47;14.57;;;2.30;41.60;;;;;;10366421;28;20321;-75
2024/01/14 10:19:39;;;;;;;19.67;14.17;;;2.50;41.60;;;;;;10366526;28;20240;-75
2024/01/14 10:24:42;;;;;;;19.87;13.57;;;2.60;41.10;;;;;;10367348;28;20709;-74
2024/01/14 10:29:46;;;;;;;18.13;12.33;;;2.60;40.90;;;;;;10367026;28;20230;-75
2024/01/14 10:34:53;;;;;;;19.23;13.27;;;2.70;40.90;;;;;;10366177;28;20728;-74
2024/01/14 10:39:58;;;;;;;18.37;13.23;;;2.60;40.80;;;;;;10361908;28;20714;-74
2024/01/14 10:45:02;;;;;;;18.30;13.13;;;2.60;40.80;;;;;;10364739;28;20835;-74
2024/01/14 10:50:08;;;;;;;21.27;14.53;;;2.60;40.80;;;;;;10358348;28;20226;-76
2024/01/14 10:55:24;;;;;;;16.97;12.57;;;2.60;40.80;;;;;;10362117;28;20230;-76
2024/01/14 11:00:28;;;;;;;16.70;12.27;;;2.60;41.00;;;;;;10355214;28;20283;-76
2024/01/14 11:05:34;;;;;;;19.13;12.63;;;2.80;41.40;;;;;;10358039;28;20312;-76
2024/01/14 11:10:38;;;;;;;17.00;12.80;;;2.80;41.40;;;;;;10359123;28;20341;-75
2024/01/14 11:15:50;;;;;;;18.57;14.10;;;3.00;41.10;;;;;;10355466;28;20231;-74
2024/01/14 11:21:02;;;;;;;19.50;13.10;;;3.10;41.20;;;;;;10350307;28;20299;-74
2024/01/14 11:26:25;;;;;;;16.13;12.30;;;3.20;41.20;;;;;;10350361;28;20231;-74
2024/01/14 11:32:02;;;;;;;17.23;12.43;;;3.40;42.20;;;;;;10347984;28;20773;-75
2024/01/14 11:37:07;;;;;;;14.97;11.47;;;3.50;41.00;;;;;;10344212;28;20230;-74
2024/01/14 11:42:11;;;;;;;16.40;11.60;;;3.70;41.60;;;;;;10349424;28;21144;-75
2024/01/14 11:47:14;;;;;;;16.67;12.20;;;3.80;41.20;;;;;;10346139;28;20310;-74
2024/01/14 11:52:18;;;;;;;14.90;11.10;;;3.80;41.20;;;;;;10346528;28;20239;-75
2024/01/14 11:57:23;;;;;;;15.83;11.97;;;3.90;41.00;;;;;;10349993;28;20319;-75
2024/01/14 12:02:26;;;;;;;15.53;12.23;;;3.90;41.10;;;;;;10346662;28;20251;-74
2024/01/14 12:07:31;;;;;;;14.50;11.07;;;4.00;41.00;;;;;;10347377;28;20246;-73
2024/01/14 12:12:38;;;;;;;19.73;14.00;;;4.00;41.00;;;;;;10345132;28;20225;-75
2024/01/14 12:17:53;;;;;;;15.40;11.90;;;4.10;40.80;;;;;;10344057;28;20697;-75
2024/01/14 12:23:00;;;;;;;16.27;12.27;;;4.20;40.80;;;;;;10343764;28;20267;-75
2024/01/14 12:28:03;;;;;;;15.73;12.27;;;4.30;41.20;;;;;;10342345;28;20322;-75
2024/01/14 12:33:12;;;;;;;15.77;12.30;;;4.40;41.20;;;;;;10343376;28;20281;-75
2024/01/14 12:38:17;;;;;;;15.03;11.60;;;4.60;40.80;;;;;;10341940;28;20697;-75
2024/01/14 12:43:20;;;;;;;16.70;11.47;;;4.70;40.70;;;;;;10343916;28;20319;-75
2024/01/14 12:48:25;;;;;;;14.13;11.63;;;4.70;40.60;;;;;;10341160;28;20313;-75
2024/01/14 12:53:31;;;;;;;13.63;11.80;;;4.80;40.50;;;;;;10342054;28;20234;-75
2024/01/14 12:58:34;;;;;;;15.90;11.90;;;5.00;40.30;;;;;;10342823;28;20254;-75
2024/01/14 13:03:39;;;;;;;15.97;11.90;;;5.00;40.30;;;;;;10346483;28;20254;-75
2024/01/14 13:08:44;;;;;;;14.93;11.90;;;5.00;40.50;;;;;;10342549;28;20227;-75
2024/01/14 13:13:47;;;;;;;14.80;11.73;;;5.00;40.40;;;;;;10342622;28;20334;-75
2024/01/14 13:18:50;;;;;;;14.60;12.20;;;5.10;40.50;;;;;;10345013;28;20246;-74
2024/01/14 13:23:56;;;;;;;14.70;11.50;;;5.20;40.20;;;;;;10347166;28;20245;-76
2024/01/14 13:29:11;;;;;;;14.50;11.53;;;5.30;40.00;;;;;;10339169;28;20309;-76
2024/01/14 13:34:15;;;;;;;14.43;11.97;;;5.40;39.50;;;;;;10341758;28;20230;-75
2024/01/14 13:39:20;;;;;;;14.40;12.03;;;5.40;39.60;;;;;;10341687;28;20229;-75
2024/01/14 13:44:23;;;;;;;14.17;11.50;;;5.40;39.60;;;;;;10346699;28;20321;-75
2024/01/14 13:49:28;;;;;;;16.60;11.70;;;5.40;39.70;;;;;;10357357;28;20257;-74
2024/01/14 13:54:32;;;;;;;13.47;11.80;;;5.40;39.60;;;;;;10351080;28;20246;-76
2024/01/14 13:59:36;;;;;;;13.20;10.73;;;5.40;39.80;;;;;;10358338;28;20222;-76
2024/01/14 14:04:39;;;;;;;13.27;11.30;;;5.50;39.80;;;;;;10354500;28;20249;-75
2024/01/14 14:09:44;;;;;;;15.60;11.47;;;5.50;39.60;;;;;;10356595;28;20257;-76
2024/01/14 14:14:47;;;;;;;16.03;12.80;;;5.50;39.30;;;;;;10356187;28;20250;-75
2024/01/14 14:19:51;;;;;;;15.80;12.33;;;5.60;39.40;;;;;;10354073;28;20234;-76
2024/01/14 14:24:56;;;;;;;15.10;12.00;;;5.50;39.10;;;;;;10358152;28;20719;-76
2024/01/14 14:29:59;;;;;;;15.97;12.17;;;5.50;39.10;;;;;;10352487;28;20230;-76
2024/01/14 14:35:02;;;;;;;15.93;12.83;;;5.40;39.20;;;;;;10354124;28;20711;-75
2024/01/14 14:40:09;;;;;;;17.83;12.50;;;5.40;39.20;;;;;;10352033;28;20254;-77
2024/01/14 14:45:13;;;;;;;14.23;11.97;;;5.30;39.10;;;;;;10357673;28;20258;-76
2024/01/14 14:50:16;;;;;;;16.67;13.40;;;5.30;39.10;;;;;;10349503;28;20254;-76
2024/01/14 14:55:21;;;;;;;18.10;13.30;;;5.20;39.10;;;;;;10358081;28;20241;-76
2024/01/14 15:00:24;;;;;;;17.40;14.53;;;5.20;38.80;;;;;;10358789;28;20244;-76
2024/01/14 15:05:27;;;;;;;17.23;14.00;;;5.20;39.10;;;;;;10357261;28;20653;-76
2024/01/14 15:10:32;;;;;;;17.77;13.93;;;5.10;38.90;;;;;;10358511;28;20276;-75
2024/01/14 15:15:35;;;;;;;14.87;10.53;;;5.10;38.80;;;;;;10360781;28;20310;-73
2024/01/14 15:20:39;;;;;;;16.53;12.93;;;5.00;41.20;;;;;;10359201;28;20250;-75
2024/01/14 15:25:44;;;;;;;23.43;14.77;;;5.10;40.30;;;;;;10356132;28;20304;-76
2024/01/14 15:30:47;;;;;;;15.67;10.40;;;5.20;39.80;;;;;;10353754;28;20317;-74
2024/01/14 15:36:07;;;;;;;16.07;12.67;;;5.20;40.80;;;;;;10348003;28;20357;-76
2024/01/14 15:41:13;;;;;;;18.00;12.80;;;5.20;39.60;;;;;;10345879;28;20231;-76
2024/01/14 15:46:16;;;;;;;15.73;12.07;;;5.20;39.10;;;;;;10342630;28;20235;-75
2024/01/14 15:51:20;;;;;;;13.63;11.60;;;5.30;39.40;;;;;;10342428;28;20671;-76
2024/01/14 15:56:26;;;;;;;14.07;11.13;;;5.30;39.30;;;;;;10345436;28;20238;-75
2024/01/14 16:01:29;;;;;;;16.30;12.77;;;5.30;38.90;;;;;;10344954;28;20231;-76
2024/01/14 16:06:33;;;;;;;18.17;12.50;;;5.30;38.90;;;;;;10346525;28;20245;-74
2024/01/14 16:11:38;;;;;;;18.90;15.87;;;5.30;38.80;;;;;;10342114;28;20309;-75
2024/01/14 16:16:43;;;;;;;16.83;14.17;;;5.20;38.40;;;;;;10340968;28;20321;-75
2024/01/14 16:21:46;;;;;;;19.17;15.63;;;5.20;38.60;;;;;;10346430;28;20288;-75
2024/01/14 16:26:51;;;;;;;20.30;16.20;;;5.20;38.50;;;;;;10341651;28;20237;-76
2024/01/14 16:31:54;;;;;;;20.60;16.10;;;5.10;38.10;;;;;;10343797;28;20234;-76
2024/01/14 16:36:58;;;;;;;19.33;15.07;;;5.10;38.30;;;;;;10342031;28;20234;-76
2024/01/14 16:42:03;;;;;;;21.27;17.93;;;5.00;38.20;;;;;;10342513;28;20705;-74
2024/01/14 16:47:09;;;;;;;19.60;15.50;;;5.00;38.00;;;;;;10342833;28;20231;-76
2024/01/14 16:52:12;;;;;;;23.27;19.37;;;4.90;38.10;;;;;;10344578;28;20312;-75
2024/01/14 16:57:17;;;;;;;20.97;16.53;;;4.80;37.70;;;;;;10347880;28;20253;-73
2024/01/14 17:02:20;;;;;;;20.20;17.00;;;4.60;37.70;;;;;;10351629;28;20583;-74
2024/01/14 17:07:23;;;;;;;19.10;16.03;;;4.50;38.30;;;;;;10343798;28;20309;-75
2024/01/14 17:12:28;;;;;;;26.50;19.67;;;4.50;38.30;;;;;;10349987;28;20230;-75
2024/01/14 17:17:31;;;;;;;23.50;18.63;;;4.50;38.00;;;;;;10357321;28;20414;-75
2024/01/14 17:22:34;;;;;;;22.03;18.07;;;4.40;38.00;;;;;;10365732;28;20245;-75
2024/01/14 17:27:39;;;;;;;22.60;18.40;;;4.30;38.00;;;;;;10367388;28;20238;-76
2024/01/14 17:32:43;;;;;;;23.70;17.53;;;4.30;38.00;;;;;;10362045;28;20249;-74
2024/01/14 17:37:46;;;;;;;17.97;14.93;;;4.30;38.00;;;;;;10368453;28;20229;-76
2024/01/14 17:42:50;;;;;;;21.00;14.63;;;4.20;37.90;;;;;;10369943;28;20261;-76
2024/01/14 17:47:53;;;;;;;15.43;12.93;;;4.10;37.70;;;;;;10370297;28;20570;-75
2024/01/14 17:52:57;;;;;;;18.10;14.50;;;4.10;37.80;;;;;;10369388;28;20223;-76
2024/01/14 17:58:08;;;;;;;15.27;12.40;;;4.10;37.70;;;;;;10369991;28;20230;-75
2024/01/14 18:03:12;;;;;;;18.27;13.93;;;4.00;37.50;;;;;;10369797;28;20254;-76
2024/01/14 18:08:16;;;;;;;22.27;16.40;;;4.00;37.60;;;;;;10369408;28;20230;-76
2024/01/14 18:13:20;;;;;;;29.53;21.10;;;3.90;38.20;;;;;;10368862;28;20222;-76
2024/01/14 18:18:24;;;;;;;22.50;18.03;;;3.90;37.40;;;;;;10368246;28;20230;-76
2024/01/14 18:23:27;;;;;;;22.13;17.23;;;3.70;37.10;;;;;;10367810;28;20230;-76
2024/01/14 18:28:32;;;;;;;16.63;13.27;;;3.60;37.10;;;;;;10367413;28;20226;-76
2024/01/14 18:33:35;;;;;;;21.10;15.57;;;3.40;37.30;;;;;;10366391;28;20261;-75
2024/01/14 18:38:39;;;;;;;47.87;41.60;;;3.30;37.50;;;;;;10366370;28;20230;-75
2024/01/14 18:43:44;;;;;;;105.23;74.63;;;3.20;37.60;;;;;;10365660;28;20238;-74
2024/01/14 18:48:47;;;;;;;96.97;64.87;;;3.10;37.50;;;;;;10360634;28;20318;-74
2024/01/14 18:53:50;;;;;;;87.20;57.30;;;3.00;37.60;;;;;;10360976;28;20230;-74
2024/01/14 18:58:55;;;;;;;66.53;43.60;;;2.90;37.80;;;;;;10361063;28;20739;-74
2024/01/14 19:03:58;;;;;;;56.43;37.43;;;2.80;37.80;;;;;;10363465;28;20236;-74
2024/01/14 19:09:04;;;;;;;34.80;25.00;;;2.80;38.00;;;;;;10359980;28;20222;-74
2024/01/14 19:14:09;;;;;;;31.03;23.47;;;2.80;38.00;;;;;;10357145;28;20230;-73
2024/01/14 19:19:13;;;;;;;25.63;18.87;;;2.80;38.00;;;;;;10356230;28;20229;-74
2024/01/14 19:24:17;;;;;;;21.97;16.57;;;2.70;38.00;;;;;;10355647;28;20235;-74
2024/01/14 19:29:21;;;;;;;23.50;16.20;;;2.60;37.90;;;;;;10364363;28;20223;-73
2024/01/14 19:34:24;;;;;;;19.63;15.13;;;2.60;38.10;;;;;;10362857;28;20234;-74
2024/01/14 19:39:28;;;;;;;21.93;16.07;;;2.60;38.40;;;;;;10364293;28;20222;-74
2024/01/14 19:44:32;;;;;;;21.73;17.30;;;2.60;38.40;;;;;;10364053;28;20257;-74
2024/01/14 19:49:36;;;;;;;23.77;17.03;;;2.40;38.30;;;;;;10357163;28;20921;-76
2024/01/14 19:54:39;;;;;;;20.50;16.50;;;2.40;38.40;;;;;;10362760;28;20234;-75
2024/01/14 19:59:44;;;;;;;26.53;19.63;;;2.30;38.60;;;;;;10351801;28;20747;-74
2024/01/14 20:04:47;;;;;;;23.70;17.60;;;2.20;38.70;;;;;;10362360;28;20828;-76
2024/01/14 20:09:50;;;;;;;23.83;19.07;;;2.20;38.70;;;;;;10357157;28;20232;-76
2024/01/14 20:14:57;;;;;;;29.57;19.57;;;2.10;38.80;;;;;;10366208;28;20245;-75
2024/01/14 20:20:00;;;;;;;25.30;18.90;;;2.10;39.00;;;;;;10366074;28;20835;-76
2024/01/14 20:25:04;;;;;;;26.13;18.27;;;2.00;39.00;;;;;;10365697;28;20703;-76
2024/01/14 20:30:11;;;;;;;24.17;18.97;;;1.90;39.10;;;;;;10364686;28;20794;-75
2024/01/14 20:35:15;;;;;;;26.67;21.33;;;1.80;39.30;;;;;;10365674;28;20309;-75
2024/01/14 20:40:18;;;;;;;30.73;21.73;;;1.60;39.10;;;;;;10365549;28;20230;-76
2024/01/14 20:45:23;;;;;;;30.30;21.77;;;1.80;39.40;;;;;;10365524;28;20679;-75
2024/01/14 20:50:26;;;;;;;27.87;20.67;;;1.70;39.50;;;;;;10365098;28;20226;-75
2024/01/14 20:55:29;;;;;;;30.03;22.30;;;1.70;39.50;;;;;;10371906;28;20794;-75
2024/01/14 21:00:36;;;;;;;31.07;23.80;;;1.70;39.50;;;;;;10361274;28;20313;-75
2024/01/14 21:05:39;;;;;;;28.17;21.03;;;1.70;39.50;;;;;;10372849;28;20238;-75
2024/01/14 21:10:43;;;;;;;23.87;18.20;;;1.70;39.50;;;;;;10370551;28;20237;-80
2024/01/14 21:15:48;;;;;;;21.57;15.67;;;1.70;39.50;;;;;;10368818;28;20333;-80
2024/01/14 21:20:53;;;;;;;20.57;14.90;;;1.90;39.40;;;;;;10373743;28;20313;-79
2024/01/14 21:25:57;;;;;;;22.10;17.53;;;1.80;39.40;;;;;;10366168;28;20226;-80
2024/01/14 21:31:01;;;;;;;25.67;19.17;;;1.80;39.30;;;;;;10368918;28;20237;-80
2024/01/14 21:36:07;;;;;;;20.80;16.40;;;1.90;39.30;;;;;;10368148;28;20223;-79
2024/01/14 21:41:10;;;;;;;25.47;19.13;;;1.90;39.20;;;;;;10367837;28;20234;-79
2024/01/14 21:46:15;;;;;;;27.27;20.40;;;2.00;39.10;;;;;;10365778;28;20652;-79
2024/01/14 21:51:19;;;;;;;22.00;16.83;;;1.90;39.00;;;;;;10364285;28;20265;-79
2024/01/14 21:56:22;;;;;;;21.43;15.70;;;1.90;38.90;;;;;;10367092;28;20288;-79
2024/01/14 22:01:26;;;;;;;29.80;21.47;;;1.80;38.90;;;;;;10365906;28;20261;-80
2024/01/14 22:06:33;;;;;;;28.83;19.73;;;1.80;38.90;;;;;;10366803;28;20705;-80
2024/01/14 22:11:36;;;;;;;25.00;17.87;;;1.70;38.80;;;;;;10373050;28;20233;-80
2024/01/14 22:16:41;;;;;;;22.90;16.87;;;1.50;38.90;;;;;;10367012;28;20265;-80
2024/01/14 22:21:44;;;;;;;22.03;16.07;;;1.50;39.30;;;;;;10369066;28;20322;-79
2024/01/14 22:26:48;;;;;;;21.37;15.77;;;1.40;39.50;;;;;;10365400;28;20644;-80
2024/01/14 22:31:53;;;;;;;22.20;16.93;;;1.40;39.60;;;;;;10368766;28;20246;-79
2024/01/14 22:36:56;;;;;;;22.87;16.07;;;1.50;39.50;;;;;;10366353;28;20234;-79
2024/01/14 22:42:00;;;;;;;23.43;16.97;;;1.50;39.50;;;;;;10347369;28;20258;-79
2024/01/14 22:47:05;;;;;;;20.43;14.40;;;1.50;39.60;;;;;;10366080;28;20352;-79
2024/01/14 22:52:08;;;;;;;16.77;10.30;;;1.60;39.90;;;;;;10336585;28;20329;-80
2024/01/14 22:57:11;;;;;;;14.83;10.83;;;1.60;39.90;;;;;;10363592;28;20226;-80
2024/01/14 23:02:16;;;;;;;14.93;10.90;;;1.60;40.00;;;;;;10356281;28;20302;-79
2024/01/14 23:07:19;;;;;;;12.97;10.83;;;1.80;40.30;;;;;;10355866;28;20318;-80
2024/01/14 23:12:23;;;;;;;14.50;10.57;;;1.80;40.20;;;;;;10354392;28;20300;-80
2024/01/14 23:17:27;;;;;;;12.30;10.30;;;1.90;40.20;;;;;;10348663;28;20258;-79
2024/01/14 23:22:31;;;;;;;14.50;10.23;;;1.90;40.20;;;;;;10355496;28;21208;-79
2024/01/14 23:27:34;;;;;;;14.97;10.93;;;2.00;40.30;;;;;;10357920;28;20249;-80
2024/01/14 23:32:39;;;;;;;13.03;10.47;;;2.00;40.10;;;;;;10362061;28;20265;-80
2024/01/14 23:37:42;;;;;;;14.10;11.10;;;2.00;40.20;;;;;;10340845;28;20321;-79
2024/01/14 23:42:46;;;;;;;13.27;10.50;;;2.00;40.20;;;;;;10342246;28;20258;-80
2024/01/14 23:47:50;;;;;;;19.07;13.23;;;2.00;40.00;;;;;;10363538;28;20329;-79
2024/01/14 23:52:54;;;;;;;18.83;13.17;;;2.00;40.20;;;;;;10366308;28;20230;-79
2024/01/14 23:57:57;;;;;;;19.43;14.80;;;2.10;40.30;;;;;;10366753;28;20234;-79
